• Join FlightAware (Why Join?)
  • Login
  • US Flag 
11:57AM EDT


 

Airport Tracker/Info


-or-


 

Live Flight TrackerFlight Track Log ✈ CSJ915 ✈ 04-Jun-2013 ✈ KCAK - KCVG

Flight Track Log - Related Links

Times and Time Zones

All times are in EDT time to prevent confusion due to time zone crossing. See the CSJ915 flight status page for this flight to view local times or setup timezone preferences in your user account.

Time Position Orientation Groundspeed Altitude Reporting Facility
EDT Latitude Longitude Course Direction KTS MPH feet Rate Location/Type
06:04PM 40.8875 -81.4856 235° Southwest 120 138 2,500  Level Indianapolis Center
06:05PM 40.8694 -81.5239 238° Southwest 121 139 3,400 720 Climbing Indianapolis Center
06:06PM 40.8497 -81.5608 235° Southwest 120 138 4,100 660 Climbing Indianapolis Center
06:07PM 40.8214 -81.6092 232° Southwest 132 152 4,800 660 Climbing Indianapolis Center
06:08PM 40.7986 -81.6558 237° Southwest 141 162 5,500 480 Climbing Indianapolis Center
06:09PM 40.7744 -81.6997 234° Southwest 145 167 5,900 180 Climbing Indianapolis Center
06:10PM 40.7514 -81.6960 235° Southwest  Level FlightAware Approximate
06:11PM 40.7483 -81.7439 232° Southwest 148 170 5,900  Level Indianapolis Center
06:12PM 40.7233 -81.7969 238° Southwest 162 186 6,000  Climbing Indianapolis Center
06:13PM 40.6958 -81.8444 233° Southwest 162 186 6,000  Level Indianapolis Center
06:14PM 40.6686 -81.8925 233° Southwest 162 186 6,000  Level Indianapolis Center
06:15PM 40.6372 -81.9494 234° Southwest 162 186 6,000  Level Indianapolis Center
06:16PM 40.6108 -82.0008 236° Southwest 166 191 6,000  Level Indianapolis Center
06:17PM 40.5833 -82.0483 233° Southwest 162 186 6,000  Level Indianapolis Center
06:17PM 40.5653 -82.0889 240° Southwest 162 186 6,000  Level Indianapolis Center
06:18PM 40.5586 -82.0986 228° Southwest 161 185 6,000  Level Indianapolis Center
06:18PM 40.5511 -82.1147 239° Southwest 162 186 6,000  Level Indianapolis Center
06:19PM 40.5319 -82.1483 233° Southwest 164 189 6,000  Level Indianapolis Center
06:20PM 40.5042 -82.1944 232° Southwest 160 184 6,000  Level Indianapolis Center
06:21PM 40.4689 -82.2625 236° Southwest 163 188 6,000  Level Indianapolis Center
06:22PM 40.4486 -82.2914 227° Southwest 164 189 6,000  Level Indianapolis Center
06:23PM 40.4178 -82.3469 234° Southwest 162 186 6,000  Level Indianapolis Center
06:24PM 40.3906 -82.3956 234° Southwest 164 189 6,000  Level Indianapolis Center
06:25PM 40.3586 -82.4558 235° Southwest 162 186 6,000  Level Indianapolis Center
06:26PM 40.3372 -82.4908 231° Southwest 160 184 6,000  Level Indianapolis Center
06:27PM 40.3097 -82.5383 233° Southwest 160 184 6,000  Level Indianapolis Center
06:28PM 40.2833 -82.5867 234° Southwest 162 186 6,000  Level Indianapolis Center
06:29PM 40.2558 -82.6347 233° Southwest 162 186 6,000  Level Indianapolis Center
06:30PM 40.2219 -82.6922 232° Southwest 162 186 6,000  Level Indianapolis Center
06:31PM 40.1989 -82.7322 233° Southwest 161 185 6,000  Level Indianapolis Center
06:32PM 40.1656 -82.7869 231° Southwest 164 189 6,000  Level Indianapolis Center
06:33PM 40.1394 -82.8331 233° Southwest 166 191 6,000  Level Indianapolis Center
06:34PM 40.1111 -82.8817 233° Southwest 167 192 6,000  Level Indianapolis Center
06:35PM 40.0825 -82.9331 234° Southwest 165 190 6,000  Level Indianapolis Center
06:36PM 40.0542 -82.9814 233° Southwest 163 188 6,000  Level Indianapolis Center
06:37PM 40.0281 -83.0275 234° Southwest 164 189 6,000  Level Indianapolis Center
06:38PM 40.0017 -83.0761 235° Southwest 165 190 6,000  Level Indianapolis Center
06:39PM 39.9708 -83.1269 232° Southwest 171 197 6,000  Level Indianapolis Center
06:40PM 39.9422 -83.1781 234° Southwest 166 191 6,000  Level Indianapolis Center
06:41PM 39.9139 -83.2236 231° Southwest 166 191 6,000  Level Indianapolis Center
06:42PM 39.8856 -83.2719 233° Southwest 168 193 6,000  Level Indianapolis Center
06:43PM 39.8547 -83.3225 232° Southwest 169 194 6,000  Level Indianapolis Center
06:44PM 39.8261 -83.3706 232° Southwest 168 193 6,000  Level Indianapolis Center
06:45PM 39.8211 -83.3786 231° Southwest 169 194 6,000  Level Indianapolis Center
06:45PM 39.7975 -83.4189 233° Southwest 171 197 6,000  Level Indianapolis Center
06:46PM 39.7919 -83.4289 234° Southwest 169 194 6,000  Level Indianapolis Center
06:46PM 39.7686 -83.4697 233° Southwest 170 196 6,000  Level Indianapolis Center
06:47PM 39.7633 -83.4797 236° Southwest 170 196 6,000  Level Indianapolis Center
06:47PM 39.7419 -83.5206 236° Southwest 168 193 6,000  Level Indianapolis Center
06:48PM 39.7358 -83.5294 228° Southwest 168 193 6,000  Level Indianapolis Center
06:48PM 39.7133 -83.5686 233° Southwest 166 191 6,000  Level Indianapolis Center
06:49PM 39.7075 -83.5786 233° Southwest 167 192 6,000  Level Indianapolis Center
06:49PM 39.6847 -83.6167 232° Southwest 167 192 6,000  Level Indianapolis Center
06:50PM 39.6797 -83.6264 236° Southwest 166 191 6,000  Level Indianapolis Center
06:50PM 39.6558 -83.6644 231° Southwest 165 190 6,000  Level Indianapolis Center
06:51PM 39.6450 -83.6814 230° Southwest 166 191 6,000  Level Indianapolis Center
06:52PM 39.6161 -83.7281 231° Southwest 165 190 6,000  Level Indianapolis Center
06:53PM 39.5867 -83.7753 231° Southwest 166 191 6,000  Level Indianapolis Center
06:54PM 39.5586 -83.8217 232° Southwest 165 190 6,000  Level Indianapolis Center
06:55PM 39.5297 -83.8692 232° Southwest 165 190 6,000  Level Indianapolis Center
06:56PM 39.5022 -83.9150 232° Southwest 163 188 6,000  Level Indianapolis Center
06:57PM 39.4742 -83.9625 233° Southwest 163 188 6,000 -60 Level Indianapolis Center
06:58PM 39.4461 -84.0086 232° Southwest 163 188 5,900 -60 Descending Indianapolis Center
06:59PM 39.4214 -84.0689 242° Southwest 161 185 5,900  Level Indianapolis Center
07:00PM 39.4139 -84.1289 261° West 166 191 5,900  Level Indianapolis Center
07:01PM 39.4061 -84.1886 260° West 166 191 6,000  Climbing Indianapolis Center
07:02PM 39.3981 -84.2478 260° West 166 191 6,000 -60 Level Indianapolis Center
07:03PM 39.3842 -84.3061 253° West 167 192 5,900 -120 Descending Indianapolis Center
07:04PM 39.3661 -84.3622 247° West 168 193 5,800 -360 Descending Indianapolis Center
07:05PM 39.3419 -84.4167 240° Southwest 172 198 5,200 -600 Descending Indianapolis Center
07:06PM 39.3028 -84.4733 228° Southwest 177 204 4,600 -600 Descending Indianapolis Center
07:07PM 39.2636 -84.5164 220° Southwest 180 207 4,000 -480 Descending Indianapolis Center
07:08PM 39.2289 -84.5500 217° Southwest 182 209 3,700 -480 Descending Indianapolis Center
07:10PM 39.1500 -84.6167 213° Southwest 177 204 2,600 -660 Descending Cincinnati TRACON
07:11PM 39.1000 -84.6500 207° Southwest 173 199 1,800 -840 Descending Cincinnati TRACON
07:13PM 39.0488 -84.6678 237° Southwest  Level Estimated
07:20PM 39.0488 -84.6678 237° Southwest  Level Estimated